createdAt,value
2018-02-27T00:00:55.724Z,0.00
2018-02-27T00:01:55.704Z,0.00
2018-02-27T00:02:55.689Z,0.00
2018-02-27T00:03:55.654Z,0.00
2018-02-27T00:04:55.651Z,0.00
2018-02-27T00:05:55.627Z,0.00
2018-02-27T00:06:55.598Z,0.00
2018-02-27T00:07:55.574Z,0.00
2018-02-27T00:08:55.565Z,0.00
2018-02-27T00:10:28.744Z,0.00
2018-02-27T00:10:55.534Z,0.00
2018-02-27T00:11:55.504Z,0.00
2018-02-27T00:12:55.488Z,0.00
2018-02-27T00:13:55.461Z,0.00
2018-02-27T00:14:55.446Z,0.00
2018-02-27T00:15:55.436Z,0.00
2018-02-27T00:16:55.396Z,0.00
2018-02-27T00:17:55.384Z,0.00
2018-02-27T00:18:55.360Z,0.00
2018-02-27T00:19:55.343Z,0.00
2018-02-27T00:20:55.315Z,0.00
2018-02-27T00:21:55.306Z,0.00
2018-02-27T00:22:55.539Z,0.00
2018-02-27T00:23:55.277Z,0.00
2018-02-27T00:24:55.252Z,0.00
2018-02-27T00:25:55.218Z,0.00
2018-02-27T00:26:55.202Z,0.00
2018-02-27T00:27:55.184Z,0.00
2018-02-27T00:28:55.194Z,0.00
2018-02-27T00:29:55.143Z,0.00
2018-02-27T00:30:55.140Z,0.00
2018-02-27T00:31:55.102Z,0.00
2018-02-27T00:32:55.088Z,0.00
2018-02-27T00:33:55.062Z,0.00
2018-02-27T00:34:55.052Z,0.00
2018-02-27T00:35:55.033Z,0.00
2018-02-27T00:36:55.009Z,0.00
2018-02-27T00:37:54.990Z,0.00
2018-02-27T00:38:54.972Z,0.00
2018-02-27T00:39:54.950Z,0.00
2018-02-27T00:40:54.922Z,0.00
2018-02-27T00:41:54.913Z,0.00
2018-02-27T00:42:54.889Z,0.00
2018-02-27T00:43:54.867Z,0.00
2018-02-27T00:44:54.842Z,0.00
2018-02-27T00:45:54.829Z,0.00
2018-02-27T00:46:54.807Z,0.00
2018-02-27T00:47:54.791Z,0.00
2018-02-27T00:48:54.799Z,0.00
2018-02-27T00:49:54.755Z,0.00
2018-02-27T00:50:54.732Z,0.00
2018-02-27T00:51:54.712Z,0.00
2018-02-27T00:52:54.701Z,0.00
2018-02-27T00:53:54.679Z,0.00
2018-02-27T00:54:54.654Z,0.00
2018-02-27T00:55:54.629Z,0.00
2018-02-27T00:56:54.615Z,0.00
2018-02-27T00:57:54.596Z,0.00
2018-02-27T00:58:54.577Z,0.00
2018-02-27T00:59:54.555Z,0.00
2018-02-27T01:00:54.530Z,0.00
2018-02-27T01:01:54.522Z,0.00
2018-02-27T01:02:54.494Z,0.00
2018-02-27T01:03:54.473Z,0.00
2018-02-27T01:04:54.452Z,0.00
2018-02-27T01:05:54.430Z,0.00
2018-02-27T01:06:54.419Z,0.00
2018-02-27T01:07:54.403Z,0.00
2018-02-27T01:08:54.377Z,0.00
2018-02-27T01:09:54.359Z,0.00
2018-02-27T01:10:54.346Z,0.00
2018-02-27T01:11:54.318Z,0.00
2018-02-27T01:12:54.303Z,0.00
2018-02-27T01:13:54.280Z,0.00
2018-02-27T01:14:54.259Z,0.00
2018-02-27T01:15:54.240Z,0.00
2018-02-27T01:16:54.218Z,0.00
2018-02-27T01:17:54.199Z,0.00
2018-02-27T01:18:54.188Z,0.00
2018-02-27T01:19:54.153Z,0.00
2018-02-27T01:20:54.142Z,0.00
2018-02-27T01:21:54.120Z,0.00
2018-02-27T01:22:54.099Z,0.00
2018-02-27T01:23:54.074Z,0.00
2018-02-27T01:24:54.063Z,0.00
2018-02-27T01:25:54.049Z,0.00
2018-02-27T01:26:54.013Z,0.00
2018-02-27T01:27:53.993Z,0.00
2018-02-27T01:28:53.984Z,0.00
2018-02-27T01:29:53.958Z,0.00
2018-02-27T01:30:53.934Z,0.00
2018-02-27T01:31:53.931Z,0.00
2018-02-27T01:32:53.905Z,0.00
2018-02-27T01:33:53.879Z,0.00
2018-02-27T01:34:53.865Z,0.00
2018-02-27T01:35:53.858Z,0.00
2018-02-27T01:36:53.818Z,0.00
2018-02-27T01:37:53.813Z,0.00
2018-02-27T01:38:53.790Z,0.00
2018-02-27T01:39:53.760Z,0.00
2018-02-27T01:40:53.745Z,0.00
2018-02-27T01:41:53.726Z,0.00
2018-02-27T01:42:53.710Z,0.00
2018-02-27T01:43:53.695Z,0.00
2018-02-27T01:44:53.665Z,0.00
2018-02-27T01:46:26.854Z,0.00
2018-02-27T01:46:53.623Z,0.00
2018-02-27T01:47:53.603Z,0.00
2018-02-27T01:48:53.586Z,0.00
2018-02-27T01:49:53.573Z,0.00
2018-02-27T01:50:53.551Z,0.00
2018-02-27T01:51:53.529Z,0.00
2018-02-27T01:52:53.516Z,0.00
2018-02-27T01:53:53.491Z,0.00
2018-02-27T01:54:53.469Z,0.00
2018-02-27T01:55:53.449Z,0.00
2018-02-27T01:56:53.424Z,0.00
2018-02-27T01:57:53.420Z,0.00
2018-02-27T01:58:53.384Z,0.00
2018-02-27T01:59:53.380Z,0.00
2018-02-27T02:00:53.355Z,0.00
2018-02-27T02:01:53.331Z,0.00
2018-02-27T02:02:53.312Z,0.00
2018-02-27T02:03:53.296Z,0.00
2018-02-27T02:04:53.268Z,0.00
2018-02-27T02:05:53.256Z,0.00
2018-02-27T02:06:53.230Z,0.00
2018-02-27T02:07:53.211Z,0.00
2018-02-27T02:08:53.183Z,0.00
2018-02-27T02:09:53.171Z,0.00
2018-02-27T02:10:53.159Z,0.00
2018-02-27T02:11:53.128Z,0.00
2018-02-27T02:12:53.111Z,0.00
2018-02-27T02:13:53.091Z,0.00
2018-02-27T02:14:53.072Z,0.00
2018-02-27T02:15:53.051Z,0.00
2018-02-27T02:16:53.022Z,0.00
2018-02-27T02:17:53.001Z,0.00
2018-02-27T02:18:53.307Z,0.00
2018-02-27T02:19:52.970Z,0.00
2018-02-27T02:20:52.944Z,0.00
2018-02-27T02:21:52.920Z,0.00
2018-02-27T02:22:52.904Z,0.00
2018-02-27T02:23:52.890Z,0.00
2018-02-27T02:24:52.868Z,0.00
2018-02-27T02:25:52.855Z,0.00
2018-02-27T02:26:52.825Z,0.00
2018-02-27T02:27:52.802Z,0.00
2018-02-27T02:28:52.792Z,0.00
2018-02-27T02:29:52.763Z,0.00
2018-02-27T02:30:52.746Z,0.00
2018-02-27T02:31:52.723Z,0.00
2018-02-27T02:32:52.706Z,0.00
2018-02-27T02:33:52.676Z,0.00
2018-02-27T02:34:52.661Z,0.00
2018-02-27T02:35:52.645Z,0.00
2018-02-27T02:36:52.621Z,0.00
2018-02-27T02:37:52.617Z,0.00
2018-02-27T02:38:52.591Z,0.00
2018-02-27T02:39:52.564Z,0.00
2018-02-27T02:40:52.542Z,0.00
2018-02-27T02:41:52.515Z,0.00
2018-02-27T02:42:52.500Z,0.00
2018-02-27T02:43:52.475Z,0.00
2018-02-27T02:44:52.459Z,0.00
2018-02-27T02:45:52.432Z,0.00
2018-02-27T02:46:52.421Z,0.00
2018-02-27T02:47:52.396Z,0.00
2018-02-27T02:48:52.376Z,0.00
2018-02-27T02:49:52.357Z,0.00
2018-02-27T02:50:52.334Z,0.00
2018-02-27T02:51:52.313Z,0.00
2018-02-27T02:52:52.292Z,0.00
2018-02-27T02:53:52.278Z,0.00
2018-02-27T02:54:52.263Z,0.00
2018-02-27T02:55:52.236Z,0.00
2018-02-27T02:56:52.223Z,0.00
2018-02-27T02:57:52.195Z,0.00
2018-02-27T02:58:52.182Z,0.00
2018-02-27T02:59:52.151Z,0.00
2018-02-27T03:00:52.131Z,0.00
2018-02-27T03:01:52.107Z,0.00
2018-02-27T03:02:52.094Z,0.00
2018-02-27T03:03:52.070Z,0.00
2018-02-27T03:04:52.062Z,0.00
2018-02-27T03:05:52.045Z,0.00
2018-02-27T03:06:52.026Z,0.00
2018-02-27T03:07:51.991Z,0.00
2018-02-27T03:08:51.972Z,0.00
2018-02-27T03:09:51.951Z,0.00
2018-02-27T03:10:51.932Z,0.00
2018-02-27T03:11:51.921Z,0.00
2018-02-27T03:12:51.894Z,0.00
2018-02-27T03:13:51.881Z,0.00
2018-02-27T03:14:51.847Z,0.00
2018-02-27T03:15:51.831Z,0.00
2018-02-27T03:16:51.805Z,0.00
2018-02-27T03:17:51.789Z,0.00
2018-02-27T03:18:51.762Z,0.00
2018-02-27T03:19:51.756Z,0.00
2018-02-27T03:20:51.729Z,0.00
2018-02-27T03:21:51.704Z,0.00
2018-02-27T03:22:51.683Z,0.00
2018-02-27T03:23:51.666Z,0.00
2018-02-27T03:24:51.637Z,0.00
2018-02-27T03:25:51.629Z,0.00
2018-02-27T03:26:51.608Z,0.00
2018-02-27T03:27:51.582Z,0.00
2018-02-27T03:28:51.559Z,0.00
2018-02-27T03:29:51.826Z,0.00
2018-02-27T03:30:51.519Z,0.00
2018-02-27T03:31:51.512Z,0.00
2018-02-27T03:32:51.484Z,0.00
2018-02-27T03:33:51.464Z,0.00
2018-02-27T03:34:51.436Z,0.00
2018-02-27T03:35:51.422Z,0.00
2018-02-27T03:36:51.424Z,0.00
2018-02-27T03:37:51.380Z,0.00
2018-02-27T03:38:51.364Z,0.00
2018-02-27T03:39:51.356Z,0.00
2018-02-27T03:40:51.326Z,0.00
2018-02-27T03:41:51.301Z,0.00
2018-02-27T03:42:51.278Z,0.00
2018-02-27T03:43:51.262Z,0.00
2018-02-27T03:44:51.238Z,0.00
2018-02-27T03:45:51.218Z,0.00
2018-02-27T03:46:51.202Z,0.00
2018-02-27T03:47:51.172Z,0.00
2018-02-27T03:48:51.162Z,0.00
2018-02-27T03:49:51.147Z,0.00
2018-02-27T03:50:51.113Z,0.00
2018-02-27T03:51:51.110Z,0.00
2018-02-27T03:52:51.080Z,0.00
2018-02-27T03:53:51.064Z,0.00
2018-02-27T03:54:51.043Z,0.00
2018-02-27T03:55:51.014Z,0.00
2018-02-27T03:56:51.000Z,0.00
2018-02-27T03:57:50.987Z,0.00
2018-02-27T03:58:50.972Z,0.00
2018-02-27T03:59:50.935Z,0.00
2018-02-27T04:00:50.923Z,0.00
2018-02-27T04:01:50.903Z,0.00
2018-02-27T04:02:50.876Z,0.00
2018-02-27T04:03:50.855Z,0.00
2018-02-27T04:04:50.838Z,0.00
2018-02-27T04:05:50.811Z,0.00
2018-02-27T04:06:50.791Z,0.00
2018-02-27T04:07:50.783Z,0.00
2018-02-27T04:08:50.755Z,0.00
2018-02-27T04:09:50.730Z,0.00
2018-02-27T04:10:50.724Z,0.00
2018-02-27T04:11:50.694Z,0.00
2018-02-27T04:12:50.679Z,0.00
2018-02-27T04:13:50.652Z,0.00
2018-02-27T04:14:50.637Z,0.00
2018-02-27T04:15:50.623Z,0.00
2018-02-27T04:16:50.592Z,0.00
2018-02-27T04:17:50.583Z,0.00
2018-02-27T04:18:50.553Z,0.00
2018-02-27T04:19:50.537Z,0.00
2018-02-27T04:20:50.513Z,0.00
2018-02-27T04:21:50.498Z,0.00
2018-02-27T04:22:50.472Z,0.00
2018-02-27T04:23:50.458Z,0.00
2018-02-27T04:24:50.438Z,0.00
2018-02-27T04:25:50.719Z,0.00
2018-02-27T04:26:50.392Z,0.00
2018-02-27T04:27:50.382Z,0.00
2018-02-27T04:28:50.352Z,0.00
2018-02-27T04:29:50.570Z,0.00
2018-02-27T04:30:50.311Z,0.00
2018-02-27T04:31:50.296Z,0.00
2018-02-27T04:32:50.271Z,0.00
2018-02-27T04:33:50.244Z,0.00
2018-02-27T04:34:50.240Z,0.00
2018-02-27T04:35:50.212Z,0.00
2018-02-27T04:36:50.183Z,0.00
2018-02-27T04:37:50.159Z,0.00
2018-02-27T04:38:50.143Z,0.00
2018-02-27T04:39:50.119Z,0.00
2018-02-27T04:40:50.108Z,0.00
2018-02-27T04:41:50.087Z,0.00
2018-02-27T04:42:50.065Z,0.00
2018-02-27T04:43:50.053Z,0.00
2018-02-27T04:44:50.033Z,0.00
2018-02-27T04:45:50.006Z,0.00
2018-02-27T04:46:49.992Z,0.00
2018-02-27T04:47:49.984Z,0.00
2018-02-27T04:48:49.954Z,0.00
2018-02-27T04:49:49.937Z,0.00
2018-02-27T04:50:49.904Z,0.00
2018-02-27T04:51:49.891Z,0.00
2018-02-27T04:52:49.870Z,0.00
2018-02-27T04:53:49.849Z,0.00
2018-02-27T04:54:49.833Z,0.00
2018-02-27T04:55:49.816Z,0.00
2018-02-27T04:56:49.791Z,0.00
2018-02-27T04:57:49.773Z,0.00
2018-02-27T04:58:49.752Z,0.00
2018-02-27T04:59:49.732Z,0.00
2018-02-27T05:00:49.712Z,0.00
2018-02-27T05:01:49.687Z,0.00
2018-02-27T05:02:49.663Z,0.00
2018-02-27T05:03:49.646Z,0.00
2018-02-27T05:04:49.628Z,0.00
2018-02-27T05:05:49.603Z,0.00
2018-02-27T05:06:49.595Z,0.00
2018-02-27T05:07:49.567Z,0.00
2018-02-27T05:08:49.543Z,0.00
2018-02-27T05:09:49.528Z,0.00
2018-02-27T05:10:49.510Z,0.00
2018-02-27T05:11:49.491Z,0.00
2018-02-27T05:12:49.473Z,0.00
2018-02-27T05:13:49.446Z,0.00
2018-02-27T05:14:49.422Z,0.00
2018-02-27T05:15:49.422Z,0.00
2018-02-27T05:16:49.385Z,0.00
2018-02-27T05:17:49.362Z,0.00
2018-02-27T05:18:49.345Z,0.00
2018-02-27T05:19:49.329Z,0.00
2018-02-27T05:20:49.307Z,0.00
2018-02-27T05:21:49.291Z,0.00
2018-02-27T05:22:49.261Z,0.00
2018-02-27T05:23:49.248Z,0.00
2018-02-27T05:24:49.226Z,0.00
2018-02-27T05:25:49.204Z,0.00
2018-02-27T05:26:49.176Z,0.00
2018-02-27T05:27:49.173Z,0.00
2018-02-27T05:28:49.137Z,0.00
2018-02-27T05:29:49.138Z,0.00
2018-02-27T05:30:49.105Z,0.00
2018-02-27T05:31:49.083Z,0.00
2018-02-27T05:32:49.065Z,0.00
2018-02-27T05:33:49.040Z,0.00
2018-02-27T05:34:49.028Z,0.00
2018-02-27T05:35:49.013Z,0.00
2018-02-27T05:36:48.978Z,0.00
2018-02-27T05:37:48.965Z,0.00
2018-02-27T05:38:48.936Z,0.00
2018-02-27T05:39:48.928Z,0.00
2018-02-27T05:40:48.904Z,0.00
2018-02-27T05:41:48.927Z,0.00
2018-02-27T05:42:48.869Z,0.00
2018-02-27T05:43:48.835Z,0.00
2018-02-27T05:44:48.823Z,0.00
2018-02-27T05:45:48.792Z,0.00
2018-02-27T05:46:48.783Z,0.00
2018-02-27T05:47:48.751Z,0.00
2018-02-27T05:48:48.750Z,0.00
2018-02-27T05:49:48.722Z,0.00
2018-02-27T05:50:48.695Z,0.00
2018-02-27T05:51:48.684Z,0.00
2018-02-27T05:52:48.670Z,0.00
2018-02-27T05:53:48.640Z,0.00
2018-02-27T05:54:48.609Z,0.00
2018-02-27T05:55:48.588Z,0.00
2018-02-27T05:56:48.587Z,0.00
2018-02-27T05:57:48.555Z,0.00
2018-02-27T05:58:48.540Z,0.00
2018-02-27T05:59:48.545Z,0.00
2018-02-27T06:00:48.500Z,0.00
2018-02-27T06:01:48.471Z,0.00
2018-02-27T06:02:48.447Z,0.00
2018-02-27T06:03:48.427Z,0.00
2018-02-27T06:04:48.406Z,0.00
2018-02-27T06:05:48.397Z,0.00
2018-02-27T06:06:48.366Z,0.00
2018-02-27T06:07:48.360Z,0.00
2018-02-27T06:08:48.334Z,0.00
2018-02-27T06:09:48.305Z,0.00
2018-02-27T06:10:48.298Z,0.00
2018-02-27T06:11:48.262Z,0.00
2018-02-27T06:12:48.236Z,0.00
2018-02-27T06:13:48.228Z,0.00
2018-02-27T06:14:48.211Z,0.00
2018-02-27T06:15:48.202Z,0.00
2018-02-27T06:16:48.191Z,0.00
2018-02-27T06:17:48.139Z,0.00
2018-02-27T06:18:48.119Z,0.00
2018-02-27T06:19:48.101Z,0.00
2018-02-27T06:20:48.082Z,0.00
2018-02-27T06:21:48.065Z,0.00
2018-02-27T06:22:48.053Z,0.00
2018-02-27T06:23:48.012Z,0.00
2018-02-27T06:24:47.995Z,0.00
2018-02-27T06:25:47.979Z,0.00
2018-02-27T06:26:47.955Z,0.00
2018-02-27T06:27:47.942Z,0.00
2018-02-27T06:28:47.914Z,0.00
2018-02-27T06:29:47.899Z,0.00
2018-02-27T06:30:47.881Z,0.00
2018-02-27T06:31:47.870Z,0.00
2018-02-27T06:32:47.838Z,0.00
2018-02-27T06:33:47.823Z,0.00
2018-02-27T06:34:47.785Z,0.00
2018-02-27T06:35:47.763Z,0.00
2018-02-27T06:36:47.753Z,0.00
2018-02-27T06:37:47.732Z,0.00
2018-02-27T06:38:47.714Z,0.00
2018-02-27T06:39:47.687Z,0.00
2018-02-27T06:40:47.675Z,0.00
2018-02-27T06:41:47.646Z,0.00
2018-02-27T06:42:47.862Z,0.00
2018-02-27T06:43:47.601Z,0.00
2018-02-27T06:44:47.594Z,0.00
2018-02-27T06:45:47.564Z,0.00
2018-02-27T06:46:47.545Z,0.00
2018-02-27T06:47:47.530Z,0.00
2018-02-27T06:48:47.517Z,0.00
2018-02-27T06:49:47.482Z,0.00
2018-02-27T06:50:47.464Z,0.00
2018-02-27T06:51:47.452Z,0.00
2018-02-27T06:52:47.432Z,0.00
2018-02-27T06:53:47.393Z,0.00
2018-02-27T06:54:47.385Z,0.00
2018-02-27T06:55:47.356Z,0.00
2018-02-27T06:56:47.341Z,0.00
2018-02-27T06:57:47.319Z,0.00
2018-02-27T06:58:47.305Z,0.00
2018-02-27T06:59:47.299Z,0.00
2018-02-27T07:00:47.259Z,0.00
2018-02-27T07:01:47.238Z,0.00
2018-02-27T07:02:47.216Z,0.00
2018-02-27T07:03:47.194Z,0.00
2018-02-27T07:04:47.183Z,0.00
2018-02-27T07:05:47.157Z,0.00
2018-02-27T07:06:47.135Z,0.00
2018-02-27T07:07:47.118Z,0.00
2018-02-27T07:08:47.099Z,0.00
2018-02-27T07:09:47.074Z,0.00
2018-02-27T07:10:47.051Z,0.00
2018-02-27T07:11:47.027Z,0.00
2018-02-27T07:12:47.007Z,0.00
2018-02-27T07:13:46.994Z,0.00
2018-02-27T07:14:46.968Z,0.00
2018-02-27T07:15:46.955Z,0.00
2018-02-27T07:16:46.933Z,0.00
2018-02-27T07:17:46.916Z,0.00
2018-02-27T07:18:46.886Z,0.00
2018-02-27T07:19:46.864Z,0.00
2018-02-27T07:20:46.848Z,0.00
2018-02-27T07:21:46.825Z,0.00
2018-02-27T07:22:46.804Z,0.00
2018-02-27T07:23:46.780Z,0.00
2018-02-27T07:24:46.822Z,0.00
2018-02-27T07:25:46.752Z,0.00
2018-02-27T07:26:46.724Z,0.00
2018-02-27T07:27:46.708Z,0.00
2018-02-27T07:28:46.681Z,0.00
2018-02-27T07:29:46.656Z,0.00
2018-02-27T07:30:46.652Z,0.00
2018-02-27T07:31:46.617Z,0.00
2018-02-27T07:32:46.603Z,0.00
2018-02-27T07:33:46.585Z,0.00
2018-02-27T07:34:46.570Z,0.00
2018-02-27T07:35:46.542Z,0.00
2018-02-27T07:36:46.527Z,0.00
2018-02-27T07:37:46.501Z,0.00
2018-02-27T07:38:46.479Z,0.00
2018-02-27T07:39:46.458Z,0.00
2018-02-27T07:40:46.437Z,0.00
2018-02-27T07:41:46.420Z,0.00
2018-02-27T07:42:46.400Z,0.00
2018-02-27T07:43:46.371Z,0.00
2018-02-27T07:44:46.350Z,0.00
2018-02-27T07:45:46.334Z,0.00
2018-02-27T07:46:46.315Z,0.00
2018-02-27T07:47:46.295Z,0.00
2018-02-27T07:48:46.276Z,0.00
2018-02-27T07:49:46.257Z,0.00
2018-02-27T07:50:46.234Z,0.00
2018-02-27T07:51:46.219Z,0.00
2018-02-27T07:52:46.197Z,0.00
2018-02-27T07:53:46.168Z,0.00
2018-02-27T07:54:46.150Z,0.00
2018-02-27T07:55:46.132Z,0.00
2018-02-27T07:56:46.114Z,0.00
2018-02-27T07:57:46.094Z,0.00
2018-02-27T07:58:46.073Z,0.00
2018-02-27T07:59:46.044Z,0.00
2018-02-27T08:00:46.034Z,0.00
2018-02-27T08:01:46.006Z,0.00
2018-02-27T08:02:45.982Z,0.00
2018-02-27T08:03:45.968Z,0.00
2018-02-27T08:04:45.944Z,0.00
2018-02-27T08:05:45.934Z,0.00
2018-02-27T08:06:45.910Z,0.00
2018-02-27T08:07:45.880Z,0.00
2018-02-27T08:08:45.863Z,0.00
2018-02-27T08:09:45.839Z,0.00
2018-02-27T08:10:45.818Z,0.00
2018-02-27T08:11:45.808Z,0.00
2018-02-27T08:12:45.784Z,0.00
2018-02-27T08:13:45.783Z,0.00
2018-02-27T08:14:45.739Z,0.00
2018-02-27T08:15:45.721Z,0.00
2018-02-27T08:16:45.705Z,0.00
2018-02-27T08:17:45.682Z,0.00
2018-02-27T08:18:45.662Z,0.00
2018-02-27T08:19:45.641Z,0.00
2018-02-27T08:20:45.631Z,0.00
2018-02-27T08:21:45.593Z,0.00
2018-02-27T08:22:45.574Z,0.00
2018-02-27T08:23:45.555Z,0.00
2018-02-27T08:24:45.537Z,0.00
2018-02-27T08:25:45.519Z,0.00
2018-02-27T08:26:45.489Z,0.00
2018-02-27T08:27:45.483Z,0.00
2018-02-27T08:28:45.445Z,0.00
2018-02-27T08:29:45.435Z,0.00
2018-02-27T08:30:45.403Z,0.00
2018-02-27T08:31:45.390Z,0.00
2018-02-27T08:32:45.382Z,0.00
2018-02-27T08:33:45.432Z,0.00
2018-02-27T08:34:45.334Z,0.00
2018-02-27T08:35:45.301Z,0.00
2018-02-27T08:36:45.286Z,0.00
2018-02-27T08:37:45.265Z,0.00
2018-02-27T08:38:45.252Z,0.00
2018-02-27T08:39:45.242Z,0.00
2018-02-27T08:40:45.209Z,0.00
2018-02-27T08:41:45.177Z,0.00
2018-02-27T08:42:45.166Z,0.00
2018-02-27T08:43:45.159Z,0.00
2018-02-27T08:44:45.116Z,0.00
2018-02-27T08:45:45.108Z,0.00
2018-02-27T08:46:45.085Z,0.00
2018-02-27T08:47:45.061Z,0.00
2018-02-27T08:48:45.049Z,0.00
2018-02-27T08:49:45.032Z,0.00
2018-02-27T08:50:45.002Z,0.00
2018-02-27T08:51:44.978Z,0.00
2018-02-27T08:52:44.953Z,0.00
2018-02-27T08:53:44.938Z,0.00
2018-02-27T08:54:44.913Z,0.00
2018-02-27T08:55:44.900Z,0.00
2018-02-27T08:56:44.869Z,0.00
2018-02-27T08:57:44.864Z,0.00
2018-02-27T08:58:44.832Z,5.63
2018-02-27T08:59:44.808Z,5.63
2018-02-27T09:00:44.794Z,5.63
2018-02-27T09:01:44.784Z,5.63
2018-02-27T09:02:44.760Z,5.63
2018-02-27T09:03:44.732Z,11.25
2018-02-27T09:04:44.704Z,11.25
2018-02-27T09:05:44.686Z,11.25
2018-02-27T09:06:44.677Z,16.88
2018-02-27T09:07:44.661Z,16.88
2018-02-27T09:08:44.632Z,16.88
2018-02-27T09:09:44.606Z,22.50
2018-02-27T09:10:44.585Z,22.50
2018-02-27T09:11:44.562Z,28.13
2018-02-27T09:12:44.547Z,28.13
2018-02-27T09:13:44.524Z,33.75
2018-02-27T09:14:44.536Z,33.75
2018-02-27T09:15:44.482Z,39.38
2018-02-27T09:16:44.476Z,39.38
2018-02-27T09:17:44.447Z,45.00
2018-02-27T09:18:44.426Z,45.00
2018-02-27T09:19:44.399Z,50.63
2018-02-27T09:20:44.379Z,50.63
2018-02-27T09:21:44.370Z,56.25
2018-02-27T09:22:44.348Z,61.88
2018-02-27T09:23:44.314Z,61.88
2018-02-27T09:24:44.299Z,67.50
2018-02-27T09:25:44.287Z,73.13
2018-02-27T09:26:44.259Z,73.13
2018-02-27T09:27:44.238Z,73.13
2018-02-27T09:28:44.221Z,78.75
2018-02-27T09:29:44.245Z,84.38
2018-02-27T09:30:44.171Z,90.00
2018-02-27T09:31:44.159Z,95.63
2018-02-27T09:32:44.134Z,101.25
2018-02-27T09:33:44.122Z,106.88
2018-02-27T09:34:44.097Z,112.50
2018-02-27T09:35:44.085Z,118.13
2018-02-27T09:36:44.059Z,123.75
2018-02-27T09:37:44.027Z,123.75
2018-02-27T09:38:44.073Z,129.38
2018-02-27T09:39:43.988Z,135.00
2018-02-27T09:40:44.010Z,140.63
2018-02-27T09:41:43.954Z,140.63
2018-02-27T09:42:43.930Z,146.25
2018-02-27T09:43:43.912Z,146.25
2018-02-27T09:44:43.889Z,151.88
2018-02-27T09:45:43.872Z,151.88
2018-02-27T09:46:43.852Z,151.88
2018-02-27T09:47:43.822Z,157.50
2018-02-27T09:48:43.813Z,163.13
2018-02-27T09:49:43.793Z,168.75
2018-02-27T09:50:43.771Z,168.75
2018-02-27T09:51:43.850Z,174.38
2018-02-27T09:52:43.727Z,180.00
2018-02-27T09:53:43.704Z,185.63
2018-02-27T09:54:43.694Z,196.88
2018-02-27T09:55:43.668Z,202.50
2018-02-27T09:56:43.647Z,208.13
2018-02-27T09:57:43.626Z,219.38
2018-02-27T09:58:43.634Z,225.00
2018-02-27T09:59:43.585Z,241.88
2018-02-27T10:00:43.574Z,258.75
2018-02-27T10:01:43.606Z,270.00
2018-02-27T10:02:43.543Z,281.25
2018-02-27T10:03:43.516Z,292.50
2018-02-27T10:04:43.483Z,303.75
2018-02-27T10:05:43.462Z,315.00
2018-02-27T10:06:43.447Z,331.88
2018-02-27T10:07:43.432Z,343.13
2018-02-27T10:08:43.413Z,348.75
2018-02-27T10:09:43.386Z,354.38
2018-02-27T10:10:43.372Z,365.63
2018-02-27T10:11:43.346Z,376.88
2018-02-27T10:12:43.335Z,388.13
2018-02-27T10:13:43.311Z,416.25
2018-02-27T10:14:43.284Z,427.50
2018-02-27T10:15:43.277Z,455.63
2018-02-27T10:16:43.266Z,483.75
2018-02-27T10:17:43.241Z,495.00
2018-02-27T10:18:43.220Z,506.25
2018-02-27T10:19:43.197Z,534.38
2018-02-27T10:20:43.177Z,568.13
2018-02-27T10:21:43.165Z,646.88
2018-02-27T10:22:43.133Z,630.00
2018-02-27T10:23:43.129Z,630.00
2018-02-27T10:24:43.110Z,646.88
2018-02-27T10:25:43.086Z,652.50
2018-02-27T10:26:43.062Z,686.25
2018-02-27T10:27:43.039Z,714.38
2018-02-27T10:28:43.021Z,697.50
2018-02-27T10:29:43.008Z,686.25
2018-02-27T10:30:43.037Z,641.25
2018-02-27T10:31:42.970Z,613.13
2018-02-27T10:32:42.947Z,613.13
2018-02-27T10:33:42.930Z,618.75
2018-02-27T10:34:42.929Z,646.88
2018-02-27T10:35:42.898Z,675.00
2018-02-27T10:36:42.877Z,708.75
2018-02-27T10:37:42.860Z,742.50
2018-02-27T10:38:42.832Z,781.88
2018-02-27T10:39:42.819Z,826.88
2018-02-27T10:40:42.805Z,911.25
2018-02-27T10:41:42.799Z,945.00
2018-02-27T10:42:42.761Z,922.50
2018-02-27T10:43:42.748Z,871.88
2018-02-27T10:44:42.737Z,832.50
2018-02-27T10:45:42.721Z,871.88
2018-02-27T10:46:42.694Z,866.25
2018-02-27T10:47:42.674Z,849.38
2018-02-27T10:48:42.661Z,888.75
2018-02-27T10:49:42.642Z,883.13
2018-02-27T10:50:42.625Z,860.63
2018-02-27T10:51:42.610Z,860.63
2018-02-27T10:52:42.589Z,843.75
2018-02-27T10:53:42.567Z,793.13
2018-02-27T10:54:42.550Z,759.38
2018-02-27T10:55:42.546Z,731.25
2018-02-27T10:56:42.527Z,703.13
2018-02-27T10:57:42.509Z,663.75
2018-02-27T10:58:42.495Z,652.50
2018-02-27T10:59:42.478Z,624.38
2018-02-27T11:00:42.445Z,596.25
2018-02-27T11:01:42.440Z,556.88
2018-02-27T11:02:42.405Z,506.25
2018-02-27T11:03:42.400Z,466.88
2018-02-27T11:04:42.384Z,450.00
2018-02-27T11:05:42.367Z,444.38
2018-02-27T11:06:42.341Z,433.13
2018-02-27T11:07:42.316Z,410.63
2018-02-27T11:08:42.304Z,405.00
2018-02-27T11:09:42.283Z,399.38
2018-02-27T11:10:42.275Z,382.50
2018-02-27T11:11:42.271Z,360.00
2018-02-27T11:12:42.240Z,343.13
2018-02-27T11:13:42.215Z,337.50
2018-02-27T11:14:42.197Z,337.50
2018-02-27T11:15:42.322Z,348.75
2018-02-27T11:16:42.163Z,365.63
2018-02-27T11:17:42.135Z,393.75
2018-02-27T11:18:42.121Z,393.75
2018-02-27T11:19:42.100Z,376.88
2018-02-27T11:20:42.080Z,371.25
2018-02-27T11:21:42.058Z,393.75
2018-02-27T11:22:42.047Z,393.75
2018-02-27T11:23:42.024Z,393.75
2018-02-27T11:24:42.005Z,382.50
2018-02-27T11:25:41.992Z,365.63
2018-02-27T11:26:41.976Z,348.75
2018-02-27T11:27:41.953Z,331.88
2018-02-27T11:28:41.926Z,303.75
2018-02-27T11:29:41.921Z,270.00
2018-02-27T11:30:41.896Z,258.75
2018-02-27T11:31:41.877Z,270.00
2018-02-27T11:32:41.850Z,286.88
2018-02-27T11:33:41.885Z,298.13
2018-02-27T11:34:41.815Z,298.13
2018-02-27T11:35:41.795Z,315.00
2018-02-27T11:36:41.788Z,331.88
2018-02-27T11:37:41.759Z,337.50
2018-02-27T11:38:41.749Z,360.00
2018-02-27T11:39:41.728Z,393.75
2018-02-27T11:40:41.710Z,438.75
2018-02-27T11:41:41.749Z,461.25
2018-02-27T11:42:41.668Z,466.88
2018-02-27T11:43:41.647Z,517.50
2018-02-27T11:44:41.628Z,596.25
2018-02-27T11:45:41.618Z,618.75
2018-02-27T11:46:41.583Z,630.00
2018-02-27T11:47:41.571Z,652.50
2018-02-27T11:48:41.552Z,708.75
2018-02-27T11:49:41.528Z,765.00
2018-02-27T11:50:41.508Z,793.13
2018-02-27T11:51:41.498Z,787.50
2018-02-27T11:52:41.475Z,798.75
2018-02-27T11:53:41.463Z,776.25
2018-02-27T11:54:41.440Z,759.38
2018-02-27T11:55:41.427Z,770.63
2018-02-27T11:56:41.396Z,855.00
2018-02-27T11:57:41.390Z,1001.25
2018-02-27T11:58:41.367Z,1125.00
2018-02-27T11:59:41.345Z,1215.00
2018-02-27T12:00:41.344Z,1198.13
2018-02-27T12:01:41.327Z,1220.63
2018-02-27T12:02:41.301Z,1265.63
2018-02-27T12:03:41.279Z,1338.75
2018-02-27T12:04:41.260Z,1389.38
2018-02-27T12:05:41.239Z,1288.13
2018-02-27T12:06:41.224Z,1175.63
2018-02-27T12:07:41.216Z,1080.00
2018-02-27T12:08:41.188Z,990.00
2018-02-27T12:09:41.174Z,911.25
2018-02-27T12:10:41.165Z,832.50
2018-02-27T12:11:41.139Z,759.38
2018-02-27T12:12:41.130Z,686.25
2018-02-27T12:13:41.155Z,652.50
2018-02-27T12:14:41.090Z,646.88
2018-02-27T12:15:41.070Z,630.00
2018-02-27T12:16:41.054Z,630.00
2018-02-27T12:17:41.033Z,697.50
2018-02-27T12:18:41.026Z,776.25
2018-02-27T12:19:41.038Z,877.50
2018-02-27T12:20:40.983Z,922.50
2018-02-27T12:21:40.967Z,939.38
2018-02-27T12:22:40.950Z,933.75
2018-02-27T12:23:40.934Z,922.50
2018-02-27T12:24:40.918Z,956.25
2018-02-27T12:25:40.892Z,1001.25
2018-02-27T12:26:40.885Z,1012.50
2018-02-27T12:27:40.857Z,995.63
2018-02-27T12:28:40.846Z,978.75
2018-02-27T12:29:40.838Z,922.50
2018-02-27T12:30:40.809Z,826.88
2018-02-27T12:31:40.793Z,781.88
2018-02-27T12:32:40.794Z,770.63
2018-02-27T12:33:40.759Z,720.00
2018-02-27T12:34:40.751Z,725.63
2018-02-27T12:35:40.723Z,708.75
2018-02-27T12:36:40.702Z,720.00
2018-02-27T12:37:40.691Z,703.13
2018-02-27T12:38:40.669Z,630.00
2018-02-27T12:39:40.667Z,568.13
2018-02-27T12:40:40.629Z,517.50
2018-02-27T12:41:40.626Z,517.50
2018-02-27T12:42:40.611Z,579.38
2018-02-27T12:43:40.582Z,624.38
2018-02-27T12:44:40.573Z,703.13
2018-02-27T12:45:40.552Z,838.13
2018-02-27T12:46:40.530Z,905.63
2018-02-27T12:47:40.509Z,804.38
2018-02-27T12:48:40.490Z,748.13
2018-02-27T12:49:40.490Z,703.13
2018-02-27T12:51:13.688Z,708.75
2018-02-27T12:51:40.445Z,731.25
2018-02-27T12:52:40.429Z,736.88
2018-02-27T12:53:40.410Z,748.13
2018-02-27T12:54:40.397Z,821.25
2018-02-27T12:55:40.379Z,928.13
2018-02-27T12:56:40.356Z,888.75
2018-02-27T12:57:40.340Z,855.00
2018-02-27T12:58:40.326Z,832.50
2018-02-27T12:59:40.308Z,781.88
2018-02-27T13:00:40.279Z,765.00
2018-02-27T13:01:40.266Z,742.50
2018-02-27T13:02:40.267Z,759.38